createdAt,value
2023-04-02T00:00:20.474Z,1.00
2023-04-02T00:02:57.887Z,1.00
2023-04-02T00:05:51.590Z,1.00
2023-04-02T00:08:41.294Z,1.00
2023-04-02T00:11:12.397Z,1.00
2023-04-02T00:13:46.833Z,1.00
2023-04-02T00:16:22.861Z,1.00
2023-04-02T00:18:55.730Z,1.00
2023-04-02T00:21:28.465Z,1.00
2023-04-02T00:24:02.029Z,1.00
2023-04-02T00:26:34.132Z,1.00
2023-04-02T00:29:05.694Z,1.00
2023-04-02T00:31:36.201Z,1.00
2023-04-02T00:34:06.681Z,1.00
2023-04-02T00:36:36.804Z,1.00
2023-04-02T00:39:16.791Z,1.00
2023-04-02T00:41:48.096Z,1.00
2023-04-02T00:44:22.212Z,1.00
2023-04-02T00:46:52.937Z,1.00
2023-04-02T00:49:33.989Z,1.00
2023-04-02T00:52:06.148Z,1.00
2023-04-02T00:54:49.942Z,1.00
2023-04-02T00:57:23.613Z,1.00
2023-04-02T00:59:59.120Z,1.00
2023-04-02T01:02:32.302Z,1.00
2023-04-02T01:05:04.309Z,1.00
2023-04-02T01:07:52.396Z,1.00
2023-04-02T01:10:43.171Z,1.00
2023-04-02T01:13:22.457Z,1.00
2023-04-02T01:15:57.306Z,1.00
2023-04-02T01:18:47.012Z,1.00
2023-04-02T01:21:28.552Z,1.00
2023-04-02T01:24:05.527Z,1.00
2023-04-02T01:26:57.943Z,1.00
2023-04-02T01:29:32.452Z,1.00
2023-04-02T01:32:04.933Z,1.00
2023-04-02T01:34:34.893Z,1.00
2023-04-02T01:37:18.157Z,1.00
2023-04-02T01:40:01.837Z,1.00
2023-04-02T01:42:38.818Z,1.00
2023-04-02T01:45:12.475Z,1.00
2023-04-02T01:47:42.148Z,1.00
2023-04-02T01:50:25.458Z,1.00
2023-04-02T01:52:58.489Z,1.00
2023-04-02T01:55:34.507Z,1.00
2023-04-02T01:58:04.996Z,1.00
2023-04-02T02:00:37.758Z,1.00
2023-04-02T02:03:09.131Z,1.00
2023-04-02T02:05:39.004Z,1.00
2023-04-02T02:08:17.348Z,1.00
2023-04-02T02:10:46.533Z,1.00
2023-04-02T02:13:17.135Z,1.00
2023-04-02T02:15:48.232Z,7.30
2023-04-02T02:18:20.799Z,1.00
2023-04-02T02:20:49.986Z,14.80
2023-04-02T02:23:19.843Z,18.40
2023-04-02T02:25:49.272Z,1.00
2023-04-02T02:28:20.680Z,1.00
2023-04-02T02:30:54.612Z,1.00
2023-04-02T02:33:26.955Z,1.00
2023-04-02T02:36:04.590Z,13.80
2023-04-02T02:38:47.644Z,26.70
2023-04-02T02:41:28.505Z,27.80
2023-04-02T02:44:03.925Z,90.80
2023-04-02T02:46:35.757Z,81.20
2023-04-02T02:49:10.817Z,78.10
2023-04-02T02:51:45.221Z,99.90
2023-04-02T02:54:20.730Z,99.90
2023-04-02T02:56:55.296Z,99.90
2023-04-02T02:59:25.710Z,99.90
2023-04-02T03:01:56.645Z,99.90
2023-04-02T03:04:26.562Z,72.30
2023-04-02T03:06:59.765Z,69.00
2023-04-02T03:09:40.675Z,90.30
2023-04-02T03:12:25.428Z,93.70
2023-04-02T03:15:02.065Z,44.20
2023-04-02T03:17:39.136Z,76.10
2023-04-02T03:20:16.296Z,99.90
2023-04-02T03:22:53.308Z,78.50
2023-04-02T03:25:30.079Z,34.10
2023-04-02T03:28:05.154Z,30.80
2023-04-02T03:30:40.993Z,10.30
2023-04-02T03:33:16.887Z,25.10
2023-04-02T03:35:49.842Z,78.60
2023-04-02T03:38:24.384Z,1.00
2023-04-02T03:41:02.937Z,45.40
2023-04-02T03:43:38.865Z,1.00
2023-04-02T03:46:18.153Z,8.40
2023-04-02T03:48:52.568Z,45.90
2023-04-02T03:51:27.362Z,26.00
2023-04-02T03:53:57.692Z,34.10
2023-04-02T03:56:31.820Z,88.90
2023-04-02T03:59:12.602Z,40.80
2023-04-02T04:01:47.879Z,85.50
2023-04-02T04:04:21.609Z,98.00
2023-04-02T04:06:53.787Z,99.90
2023-04-02T04:09:28.451Z,93.60
2023-04-02T04:12:08.670Z,52.70
2023-04-02T04:14:45.177Z,9.80
2023-04-02T04:17:24.993Z,19.50
2023-04-02T04:20:08.231Z,1.00
2023-04-02T04:22:38.062Z,1.00
2023-04-02T04:25:23.711Z,1.00
2023-04-02T04:28:06.033Z,47.80
2023-04-02T04:30:47.820Z,78.70
2023-04-02T04:33:23.373Z,73.70
2023-04-02T04:36:00.777Z,97.90
2023-04-02T04:38:39.565Z,43.20
2023-04-02T04:41:16.690Z,99.90
2023-04-02T04:43:52.800Z,99.90
2023-04-02T04:46:29.037Z,99.90
2023-04-02T04:49:03.914Z,99.90
2023-04-02T04:51:40.707Z,99.90
2023-04-02T04:54:13.953Z,99.90
2023-04-02T04:56:49.147Z,99.90
2023-04-02T04:59:25.728Z,99.90
2023-04-02T05:02:02.240Z,99.90
2023-04-02T05:04:37.036Z,99.90
2023-04-02T05:07:13.813Z,96.70
2023-04-02T05:09:54.262Z,99.90
2023-04-02T05:12:34.957Z,99.90
2023-04-02T05:15:14.507Z,66.50
2023-04-02T05:17:51.955Z,23.70
2023-04-02T05:20:27.947Z,28.90
2023-04-02T05:23:07.266Z,17.20
2023-04-02T05:25:37.842Z,1.00
2023-04-02T05:28:16.328Z,10.20
2023-04-02T05:30:53.006Z,1.00
2023-04-02T05:33:27.328Z,1.00
2023-04-02T05:36:02.539Z,50.50
2023-04-02T05:38:38.788Z,47.40
2023-04-02T05:41:16.994Z,29.70
2023-04-02T05:43:49.533Z,26.20
2023-04-02T05:46:22.731Z,77.50
2023-04-02T05:48:57.253Z,99.90
2023-04-02T05:51:37.510Z,91.70
2023-04-02T05:54:16.678Z,54.40
2023-04-02T05:56:51.284Z,31.60
2023-04-02T05:59:24.202Z,82.00
2023-04-02T06:02:00.344Z,94.90
2023-04-02T06:04:42.584Z,99.90
2023-04-02T06:07:18.018Z,16.10
2023-04-02T06:09:58.014Z,1.00
2023-04-02T06:12:33.554Z,1.00
2023-04-02T06:15:03.466Z,1.00
2023-04-02T06:17:44.819Z,1.00
2023-04-02T06:20:18.068Z,1.00
2023-04-02T06:22:53.011Z,1.00
2023-04-02T06:25:28.621Z,1.00
2023-04-02T06:28:02.647Z,16.30
2023-04-02T06:30:35.346Z,1.00
2023-04-02T06:33:06.625Z,1.00
2023-04-02T06:35:41.232Z,1.00
2023-04-02T06:38:21.234Z,1.00
2023-04-02T06:40:57.556Z,1.00
2023-04-02T06:43:41.423Z,7.80
2023-04-02T06:46:30.053Z,38.00
2023-04-02T06:49:12.033Z,67.00
2023-04-02T06:51:43.915Z,1.00
2023-04-02T06:54:16.703Z,29.40
2023-04-02T06:56:52.430Z,31.40
2023-04-02T06:59:48.015Z,95.70
2023-04-02T07:02:32.697Z,94.30
2023-04-02T07:05:06.460Z,53.90
2023-04-02T07:07:38.336Z,60.20
2023-04-02T07:10:11.409Z,10.20
2023-04-02T07:12:42.753Z,6.20
2023-04-02T07:15:17.150Z,1.00
2023-04-02T07:17:47.369Z,1.00
2023-04-02T07:20:28.323Z,1.00
2023-04-02T07:22:59.786Z,1.00
2023-04-02T07:25:29.557Z,1.00
2023-04-02T07:28:03.423Z,1.00
2023-04-02T07:30:33.251Z,1.00
2023-04-02T07:33:03.338Z,1.00
2023-04-02T07:35:32.724Z,1.00
2023-04-02T07:38:02.511Z,1.00
2023-04-02T07:40:32.200Z,1.00
2023-04-02T07:43:02.997Z,1.00
2023-04-02T07:45:33.078Z,1.00
2023-04-02T07:48:07.209Z,1.00
2023-04-02T07:50:36.985Z,1.00
2023-04-02T07:53:07.289Z,1.00
2023-04-02T07:55:37.065Z,1.00
2023-04-02T07:58:08.252Z,1.00
2023-04-02T08:00:38.912Z,1.00
2023-04-02T08:03:08.398Z,1.00
2023-04-02T08:05:38.288Z,1.00
2023-04-02T08:08:07.940Z,1.00
2023-04-02T08:10:37.505Z,1.00
2023-04-02T08:13:08.428Z,1.00
2023-04-02T08:15:38.080Z,1.00
2023-04-02T08:18:07.595Z,1.00
2023-04-02T08:20:36.900Z,99.90
2023-04-02T08:23:07.209Z,99.90
2023-04-02T08:25:36.765Z,99.90
2023-04-02T08:28:07.953Z,99.90
2023-04-02T08:30:37.781Z,99.90
2023-04-02T08:33:07.564Z,1.00
2023-04-02T08:35:37.204Z,1.00
2023-04-02T08:38:06.654Z,1.00
2023-04-02T08:40:39.125Z,1.00
2023-04-02T08:43:34.116Z,1.00
2023-04-02T08:46:11.155Z,1.00
2023-04-02T08:48:44.596Z,1.00
2023-04-02T08:51:24.918Z,1.00
2023-04-02T08:53:57.154Z,1.00
2023-04-02T08:56:32.302Z,1.00
2023-04-02T08:59:09.399Z,1.00
2023-04-02T09:01:47.552Z,1.00
2023-04-02T09:04:20.229Z,1.00
2023-04-02T09:06:52.637Z,1.00
2023-04-02T09:09:23.404Z,1.00
2023-04-02T09:11:55.873Z,1.00
2023-04-02T09:14:37.824Z,1.00
2023-04-02T09:17:18.712Z,1.00
2023-04-02T09:19:55.078Z,1.00
2023-04-02T09:22:27.044Z,1.00
2023-04-02T09:24:57.638Z,1.00
2023-04-02T09:27:29.322Z,1.00
2023-04-02T09:30:04.841Z,1.00
2023-04-02T09:32:52.480Z,1.00
2023-04-02T09:35:26.461Z,1.00
2023-04-02T09:38:20.216Z,1.00
2023-04-02T09:40:53.471Z,1.00
2023-04-02T09:43:24.724Z,1.00
2023-04-02T09:46:03.907Z,1.00
2023-04-02T09:48:39.695Z,1.00
2023-04-02T09:51:21.746Z,1.00
2023-04-02T09:53:53.142Z,1.00
2023-04-02T09:56:26.077Z,1.00
2023-04-02T09:59:06.266Z,1.00
2023-04-02T10:01:39.030Z,1.00
2023-04-02T10:04:33.614Z,1.00
2023-04-02T10:07:03.384Z,1.00
2023-04-02T10:09:35.709Z,1.00
2023-04-02T10:12:07.474Z,1.00
2023-04-02T10:14:40.584Z,1.00
2023-04-02T10:17:17.090Z,1.00
2023-04-02T10:19:51.375Z,1.00
2023-04-02T10:22:23.179Z,1.00
2023-04-02T10:24:52.920Z,1.00
2023-04-02T10:27:31.844Z,1.00
2023-04-02T10:30:14.851Z,1.00
2023-04-02T10:32:51.359Z,1.00
2023-04-02T10:35:35.024Z,1.00
2023-04-02T10:38:20.824Z,1.00
2023-04-02T10:40:56.462Z,1.00
2023-04-02T10:43:47.514Z,1.00
2023-04-02T10:46:24.987Z,1.00
2023-04-02T10:49:05.734Z,1.00
2023-04-02T10:51:43.288Z,1.00
2023-04-02T10:54:30.946Z,1.00
2023-04-02T10:57:09.686Z,1.00
2023-04-02T10:59:43.281Z,1.00
2023-04-02T11:02:29.826Z,1.00
2023-04-02T11:05:09.021Z,1.00
2023-04-02T11:07:49.366Z,1.00
2023-04-02T11:10:21.816Z,1.00
2023-04-02T11:12:56.357Z,1.00
2023-04-02T11:15:26.250Z,1.00
2023-04-02T11:17:55.820Z,1.00
2023-04-02T11:21:07.058Z,1.00
2023-04-02T11:23:58.233Z,1.00
2023-04-02T11:26:38.869Z,5.70
2023-04-02T11:29:26.282Z,1.00
2023-04-02T11:32:31.092Z,1.00
2023-04-02T11:35:07.421Z,23.20
2023-04-02T11:37:41.395Z,84.20
2023-04-02T11:40:45.182Z,1.00
2023-04-02T11:43:49.624Z,1.00
2023-04-02T11:46:45.719Z,1.00
2023-04-02T11:49:42.436Z,1.00
2023-04-02T11:52:24.547Z,1.00
2023-04-02T11:55:19.330Z,1.00
2023-04-02T11:57:59.592Z,1.00
2023-04-02T12:01:08.107Z,1.00
2023-04-02T12:04:09.702Z,17.10
2023-04-02T12:07:00.243Z,39.30
2023-04-02T12:09:31.864Z,11.80
2023-04-02T12:12:19.022Z,1.00
2023-04-02T12:14:50.307Z,14.40
2023-04-02T12:17:31.527Z,1.00
2023-04-02T12:20:05.937Z,28.40
2023-04-02T12:22:37.247Z,21.10
2023-04-02T12:25:21.934Z,75.60
2023-04-02T12:28:06.680Z,54.90
2023-04-02T12:30:37.549Z,82.00
2023-04-02T12:33:18.031Z,99.90
2023-04-02T12:35:49.095Z,72.10
2023-04-02T12:38:22.532Z,99.90
2023-04-02T12:40:56.328Z,99.90
2023-04-02T12:43:29.476Z,99.90
2023-04-02T12:46:01.075Z,68.90
2023-04-02T12:48:31.403Z,99.90
2023-04-02T12:51:01.984Z,45.50
2023-04-02T12:53:35.533Z,1.00
2023-04-02T12:56:05.925Z,1.00
2023-04-02T12:58:38.979Z,1.00
2023-04-02T13:01:14.741Z,1.00
2023-04-02T13:03:44.526Z,1.00
2023-04-02T13:06:24.789Z,1.00
2023-04-02T13:08:54.822Z,1.00
2023-04-02T13:11:24.894Z,1.00
2023-04-02T13:14:02.825Z,1.00
2023-04-02T13:16:37.431Z,1.00
2023-04-02T13:19:24.527Z,1.00
2023-04-02T13:21:55.019Z,1.00
2023-04-02T13:24:26.202Z,1.00
2023-04-02T13:26:57.459Z,1.00
2023-04-02T13:29:30.086Z,1.00
2023-04-02T13:32:01.312Z,1.00
2023-04-02T13:34:31.526Z,1.00
2023-04-02T13:37:01.519Z,1.00
2023-04-02T13:39:30.987Z,1.00
2023-04-02T13:42:01.984Z,1.00
2023-04-02T13:44:34.406Z,1.00
2023-04-02T13:47:04.370Z,1.00
2023-04-02T13:49:34.723Z,1.00
2023-04-02T13:52:05.728Z,1.00
2023-04-02T13:54:40.994Z,1.00
2023-04-02T13:57:10.384Z,12.60
2023-04-02T13:59:41.837Z,1.20
2023-04-02T14:02:14.378Z,99.90
2023-04-02T14:04:50.150Z,99.90
2023-04-02T14:07:34.350Z,99.90
2023-04-02T14:10:16.689Z,99.90
2023-04-02T14:12:59.413Z,99.90
2023-04-02T14:15:42.376Z,99.90
2023-04-02T14:18:28.916Z,99.90
2023-04-02T14:21:06.866Z,99.90
2023-04-02T14:24:03.424Z,99.90
2023-04-02T14:26:42.105Z,99.90
2023-04-02T14:29:18.506Z,99.90
2023-04-02T14:31:57.517Z,99.90
2023-04-02T14:34:35.489Z,99.90
2023-04-02T14:37:14.981Z,99.90
2023-04-02T14:39:52.119Z,99.90
2023-04-02T14:42:27.864Z,99.90
2023-04-02T14:45:07.010Z,99.90
2023-04-02T14:47:42.827Z,99.90
2023-04-02T14:50:15.400Z,99.90
2023-04-02T14:52:53.853Z,99.90
2023-04-02T14:55:34.018Z,99.90
2023-04-02T14:58:09.877Z,99.90
2023-04-02T15:00:44.546Z,99.90
2023-04-02T15:03:22.797Z,99.90
2023-04-02T15:05:57.028Z,99.90
2023-04-02T15:08:30.503Z,99.90
2023-04-02T15:11:08.616Z,99.90
2023-04-02T15:13:44.102Z,99.90
2023-04-02T15:16:19.560Z,99.90
2023-04-02T15:18:53.709Z,99.90
2023-04-02T15:24:33.194Z,99.90
2023-04-02T15:27:23.888Z,99.90
2023-04-02T15:30:03.191Z,99.90
2023-04-02T15:32:40.332Z,99.90
2023-04-02T15:35:24.245Z,99.90
2023-04-02T15:38:02.029Z,99.90
2023-04-02T15:40:52.817Z,99.90
2023-04-02T15:43:27.642Z,99.90
2023-04-02T15:46:23.170Z,99.90
2023-04-02T15:49:07.220Z,99.90
2023-04-02T15:51:54.432Z,99.90
2023-04-02T15:54:51.855Z,99.90
2023-04-02T15:57:36.899Z,99.90
2023-04-02T16:00:24.020Z,99.90
2023-04-02T16:03:08.212Z,99.90
2023-04-02T16:05:43.683Z,99.90
2023-04-02T16:08:33.081Z,99.90
2023-04-02T16:11:03.909Z,99.90
2023-04-02T16:13:39.299Z,99.90
2023-04-02T16:16:15.758Z,99.90
2023-04-02T16:19:00.832Z,99.90
2023-04-02T16:21:34.214Z,99.90
2023-04-02T16:24:08.461Z,99.90
2023-04-02T16:27:16.076Z,99.90
2023-04-02T16:30:00.632Z,99.90
2023-04-02T16:32:47.262Z,99.90
2023-04-02T16:38:02.416Z,99.90
2023-04-02T16:40:42.694Z,99.90
2023-04-02T16:43:28.115Z,99.90
2023-04-02T16:46:08.837Z,99.90
2023-04-02T16:48:46.907Z,99.90
2023-04-02T16:51:22.690Z,99.90
2023-04-02T16:54:02.445Z,99.90
2023-04-02T16:56:50.856Z,99.90
2023-04-02T16:59:30.962Z,99.90
2023-04-02T17:02:06.360Z,99.90
2023-04-02T17:04:56.982Z,99.90
2023-04-02T17:07:36.411Z,99.90
2023-04-02T17:10:35.161Z,99.90
2023-04-02T17:13:18.500Z,99.90
2023-04-02T17:15:53.351Z,99.90
2023-04-02T17:18:27.214Z,99.90
2023-04-02T17:21:04.591Z,99.90
2023-04-02T17:23:56.040Z,99.90
2023-04-02T17:26:32.084Z,99.90
2023-04-02T17:29:09.103Z,99.90
2023-04-02T17:31:42.775Z,99.90
2023-04-02T17:34:25.559Z,99.90
2023-04-02T17:37:16.209Z,99.90
2023-04-02T17:39:55.201Z,99.90
2023-04-02T17:42:39.492Z,99.90
2023-04-02T17:45:23.308Z,99.90
2023-04-02T17:48:03.368Z,99.90
2023-04-02T17:50:58.099Z,99.90
2023-04-02T17:53:43.693Z,99.90
2023-04-02T17:56:41.552Z,99.90
2023-04-02T17:59:33.286Z,99.90
2023-04-02T18:02:26.257Z,99.90
2023-04-02T18:05:20.423Z,99.90
2023-04-02T18:08:01.324Z,99.90
2023-04-02T18:10:41.914Z,99.90
2023-04-02T18:13:23.038Z,99.90
2023-04-02T18:16:04.099Z,99.90
2023-04-02T18:19:14.085Z,99.90
2023-04-02T18:21:56.319Z,99.90
2023-04-02T18:24:58.920Z,99.90
2023-04-02T18:27:57.767Z,99.90
2023-04-02T18:30:36.294Z,99.90
2023-04-02T18:33:25.137Z,35.80
2023-04-02T18:36:05.897Z,75.10
2023-04-02T18:38:45.197Z,48.30
2023-04-02T18:41:35.440Z,52.90
2023-04-02T18:44:22.398Z,30.10
2023-04-02T18:46:56.806Z,1.00
2023-04-02T18:49:31.244Z,1.00
2023-04-02T18:52:05.248Z,1.00
2023-04-02T18:54:44.685Z,1.00
2023-04-02T18:57:21.088Z,1.00
2023-04-02T18:59:57.632Z,1.00
2023-04-02T19:02:46.413Z,1.00
2023-04-02T19:05:25.141Z,1.00
2023-04-02T19:08:03.280Z,1.00
2023-04-02T19:10:39.948Z,1.00
2023-04-02T19:13:18.013Z,1.00
2023-04-02T19:16:04.919Z,1.00
2023-04-02T19:18:48.428Z,1.00
2023-04-02T19:21:33.794Z,1.00
2023-04-02T19:24:25.572Z,1.00
2023-04-02T19:27:09.335Z,1.00
2023-04-02T19:29:58.191Z,1.00
2023-04-02T19:32:48.177Z,1.00
2023-04-02T19:35:28.945Z,1.00
2023-04-02T19:38:10.392Z,1.00
2023-04-02T19:40:48.586Z,1.00
2023-04-02T19:43:23.244Z,1.00
2023-04-02T19:45:57.527Z,1.00
2023-04-02T19:48:30.350Z,99.90
2023-04-02T19:51:01.306Z,99.90
2023-04-02T19:53:32.504Z,99.90
2023-04-02T19:56:04.599Z,1.00
2023-04-02T19:58:39.415Z,1.00
2023-04-02T20:01:11.397Z,99.90
2023-04-02T20:03:42.722Z,99.90
2023-04-02T20:06:15.455Z,99.90
2023-04-02T20:08:55.190Z,99.90
2023-04-02T20:11:30.394Z,99.90
2023-04-02T20:14:04.576Z,99.90
2023-04-02T20:16:37.678Z,25.30
2023-04-02T20:19:10.534Z,95.50
2023-04-02T20:21:42.338Z,1.00
2023-04-02T20:24:15.563Z,99.90
2023-04-02T20:26:47.375Z,99.90
2023-04-02T20:29:20.110Z,99.90
2023-04-02T20:31:50.240Z,99.90
2023-04-02T20:34:21.269Z,99.90
2023-04-02T20:36:52.575Z,29.00
2023-04-02T20:39:23.703Z,99.90
2023-04-02T20:41:54.558Z,99.90
2023-04-02T20:44:26.335Z,1.00
2023-04-02T20:46:56.737Z,99.90
2023-04-02T20:49:26.793Z,1.00
2023-04-02T20:51:56.131Z,1.00
2023-04-02T20:54:25.982Z,38.20
2023-04-02T20:56:55.539Z,99.90
2023-04-02T20:59:26.153Z,1.00
2023-04-02T21:01:55.445Z,99.90
2023-04-02T21:04:25.040Z,99.90
2023-04-02T21:06:57.230Z,99.90
2023-04-02T21:09:26.474Z,99.90
2023-04-02T21:11:55.919Z,1.00
2023-04-02T21:14:26.477Z,1.00
2023-04-02T21:16:55.909Z,1.00
2023-04-02T21:19:25.060Z,1.00
2023-04-02T21:21:56.737Z,99.90
2023-04-02T21:24:26.326Z,99.90
2023-04-02T21:26:56.036Z,1.00
2023-04-02T21:29:26.700Z,99.90
2023-04-02T21:31:56.121Z,56.20
2023-04-02T21:34:25.493Z,99.90
2023-04-02T21:36:54.765Z,1.00
2023-04-02T21:39:25.527Z,99.90
2023-04-02T21:41:55.334Z,99.90
2023-04-02T21:44:26.693Z,1.00
2023-04-02T21:46:56.057Z,1.00
2023-04-02T21:49:26.498Z,1.00
2023-04-02T21:51:56.041Z,1.00
2023-04-02T21:54:25.285Z,1.00
2023-04-02T21:56:54.568Z,1.00
2023-04-02T21:59:23.767Z,1.00
2023-04-02T22:01:54.532Z,1.00
2023-04-02T22:04:26.088Z,20.40
2023-04-02T22:06:55.711Z,1.00
2023-04-02T22:09:27.229Z,1.00
2023-04-02T22:11:59.470Z,1.00
2023-04-02T22:14:29.815Z,1.00
2023-04-02T22:17:01.632Z,1.00
2023-04-02T22:19:33.183Z,1.00
2023-04-02T22:22:02.734Z,1.00
2023-04-02T22:24:32.409Z,1.00
2023-04-02T22:27:01.808Z,1.00
2023-04-02T22:29:31.176Z,1.00
2023-04-02T22:32:01.965Z,1.00
2023-04-02T22:34:31.693Z,1.00
2023-04-02T22:37:01.081Z,1.00
2023-04-02T22:39:30.470Z,7.50
2023-04-02T22:41:59.895Z,1.00
2023-04-02T22:44:29.334Z,1.00
2023-04-02T22:46:58.691Z,79.50
2023-04-02T22:49:29.310Z,1.00
2023-04-02T22:51:58.683Z,1.00
2023-04-02T22:54:27.940Z,1.00
2023-04-02T22:56:57.257Z,1.00
2023-04-02T22:59:26.945Z,1.00
2023-04-02T23:01:56.450Z,1.00
2023-04-02T23:04:25.881Z,1.00
2023-04-02T23:06:56.526Z,1.00
2023-04-02T23:09:25.787Z,1.00
2023-04-02T23:11:55.080Z,1.00
2023-04-02T23:14:24.295Z,1.00
2023-04-02T23:16:53.565Z,1.00
2023-04-02T23:19:22.980Z,1.00
2023-04-02T23:21:52.277Z,1.00
2023-04-02T23:24:23.026Z,1.00
2023-04-02T23:26:52.279Z,1.00
2023-04-02T23:29:21.484Z,1.00
2023-04-02T23:31:51.175Z,1.00
2023-04-02T23:34:20.640Z,1.00
2023-04-02T23:36:49.966Z,1.00
2023-04-02T23:39:20.440Z,1.00
2023-04-02T23:41:51.740Z,1.00
2023-04-02T23:44:21.075Z,1.00
2023-04-02T23:46:50.427Z,1.00
2023-04-02T23:49:19.954Z,1.00
2023-04-02T23:51:49.557Z,1.00
2023-04-02T23:54:20.320Z,1.00
2023-04-02T23:56:51.041Z,1.00
2023-04-02T23:59:20.273Z,1.00
